createdAt,value
2022-09-26T05:13:29.550Z,11.40
2022-09-26T05:18:31.329Z,11.40
2022-09-26T05:23:52.762Z,11.40
2022-09-26T05:28:56.568Z,11.40
2022-09-26T05:33:58.497Z,11.50
2022-09-26T05:39:00.516Z,11.50
2022-09-26T05:44:02.461Z,11.50
2022-09-26T05:49:04.259Z,11.50
2022-09-26T05:54:06.024Z,11.50
2022-09-26T05:59:07.894Z,11.50
2022-09-26T06:04:10.503Z,11.50
2022-09-26T06:09:12.414Z,11.50
2022-09-26T06:14:14.334Z,11.50
2022-09-26T06:19:20.618Z,11.50
2022-09-26T06:24:24.677Z,11.50
2022-09-26T06:29:26.524Z,11.50
2022-09-26T06:34:28.292Z,11.50
2022-09-26T06:39:35.734Z,11.50
2022-09-26T06:44:37.725Z,11.50
2022-09-26T06:49:39.916Z,11.50
2022-09-26T06:54:42.104Z,11.60
2022-09-26T06:59:43.965Z,11.50
2022-09-26T07:04:46.230Z,11.60
2022-09-26T07:09:48.061Z,11.60
2022-09-26T07:14:53.844Z,11.70
2022-09-26T07:19:55.807Z,11.70
2022-09-26T07:24:57.726Z,11.70
2022-09-26T07:29:59.679Z,11.80
2022-09-26T07:35:04.545Z,11.80
2022-09-26T07:40:06.777Z,11.90
2022-09-26T07:45:27.779Z,11.90
2022-09-26T07:50:31.189Z,11.90
2022-09-26T07:55:33.379Z,12.00
2022-09-26T08:00:35.187Z,12.00
2022-09-26T08:05:37.240Z,12.00
2022-09-26T08:10:39.103Z,12.10
2022-09-26T08:15:41.024Z,12.10
2022-09-26T08:20:47.261Z,12.20
2022-09-26T08:25:49.229Z,12.20
2022-09-26T08:30:51.111Z,12.30
2022-09-26T08:35:53.107Z,12.40
2022-09-26T08:41:03.215Z,12.40
2022-09-26T08:46:59.946Z,12.50
2022-09-26T08:52:14.454Z,12.50
2022-09-26T08:57:39.169Z,12.50
2022-09-26T09:03:02.522Z,12.50
2022-09-26T09:08:10.961Z,12.40
2022-09-26T09:13:31.564Z,12.30
2022-09-26T09:18:55.109Z,12.30
2022-09-26T09:24:19.859Z,12.20
2022-09-26T09:29:41.883Z,12.20
2022-09-26T09:34:50.134Z,12.20
2022-09-26T09:39:55.455Z,12.20
2022-09-26T09:45:26.664Z,12.20
2022-09-26T09:50:44.296Z,12.20
2022-09-26T09:56:09.884Z,12.20
2022-09-26T10:01:17.819Z,12.20
2022-09-26T10:06:45.616Z,12.20
2022-09-26T10:11:42.573Z,12.30
2022-09-26T10:17:09.442Z,12.20
2022-09-26T10:22:27.252Z,12.20
2022-09-26T10:27:59.208Z,12.20
2022-09-26T10:33:03.511Z,12.20
2022-09-26T10:38:29.217Z,12.20
2022-09-26T10:43:33.266Z,12.20
2022-09-26T10:48:47.948Z,12.20
2022-09-26T10:53:52.892Z,12.10
2022-09-26T10:59:00.941Z,12.10
2022-09-26T11:04:38.288Z,12.10
2022-09-26T11:09:41.163Z,12.10
2022-09-26T11:14:45.826Z,12.10
2022-09-26T11:19:58.364Z,12.10
2022-09-26T11:25:06.782Z,12.00
2022-09-26T11:30:20.900Z,12.00
2022-09-26T11:35:44.420Z,12.10
2022-09-26T11:41:07.524Z,12.10
2022-09-26T11:46:38.835Z,12.10
2022-09-26T11:51:47.275Z,12.10
2022-09-26T11:56:55.741Z,12.10
2022-09-26T12:02:32.067Z,12.10
2022-09-26T12:07:34.011Z,12.10
2022-09-26T12:12:43.181Z,12.10
2022-09-26T12:17:45.007Z,12.20
2022-09-26T12:22:56.060Z,12.20
2022-09-26T12:28:10.670Z,12.20
2022-09-26T12:33:34.504Z,12.20
2022-09-26T12:38:59.492Z,12.20
2022-09-26T12:44:18.186Z,12.20
2022-09-26T12:49:34.892Z,12.20
2022-09-26T12:55:01.842Z,12.20
2022-09-26T13:00:21.683Z,12.20
2022-09-26T13:05:32.633Z,12.20
2022-09-26T13:11:04.937Z,12.20
2022-09-26T13:16:13.542Z,12.20
2022-09-26T13:21:27.116Z,12.30
2022-09-26T13:26:42.848Z,12.30
2022-09-26T13:31:48.167Z,12.30
2022-09-26T13:36:50.364Z,12.20
2022-09-26T13:42:07.496Z,12.30
2022-09-26T13:47:40.090Z,12.30
2022-09-26T13:53:06.831Z,12.30
2022-09-26T13:58:26.333Z,12.30
2022-09-26T14:03:28.302Z,12.30
2022-09-26T14:08:50.610Z,12.30
2022-09-26T14:14:21.405Z,12.30
2022-09-26T14:19:39.274Z,12.30
2022-09-26T14:24:45.438Z,12.40
2022-09-26T14:30:13.508Z,12.50
2022-09-26T14:35:18.343Z,12.50
2022-09-26T14:40:40.446Z,12.50
2022-09-26T14:45:49.833Z,12.60
2022-09-26T14:50:55.815Z,12.50
2022-09-26T14:56:29.706Z,12.50
2022-09-26T15:01:36.992Z,12.60
2022-09-26T15:06:40.116Z,12.60
2022-09-26T15:11:45.313Z,12.60
2022-09-26T15:16:50.881Z,12.60
2022-09-26T15:22:00.190Z,12.60
2022-09-26T15:27:31.897Z,12.60
2022-09-26T15:32:33.922Z,12.60
2022-09-26T15:37:36.660Z,12.60
2022-09-26T15:43:01.596Z,12.60
2022-09-26T15:48:20.094Z,12.60
2022-09-26T15:53:24.910Z,12.60
2022-09-26T15:58:45.993Z,12.60
2022-09-26T16:03:47.870Z,12.60
2022-09-26T16:08:57.531Z,12.60
2022-09-26T16:14:00.188Z,12.60
2022-09-26T16:19:04.144Z,12.60
2022-09-26T16:24:29.346Z,12.50
2022-09-26T16:29:35.226Z,12.50
2022-09-26T16:34:37.095Z,12.50
2022-09-26T16:39:39.191Z,12.50
2022-09-26T16:44:42.716Z,12.50
2022-09-26T16:49:46.932Z,12.50
2022-09-26T16:54:52.835Z,12.60
2022-09-26T17:00:18.954Z,12.60
2022-09-26T17:05:24.123Z,12.60
2022-09-26T17:10:26.536Z,12.60
2022-09-26T17:15:29.416Z,12.60
2022-09-26T17:20:31.575Z,12.60
2022-09-26T17:25:35.174Z,12.60
2022-09-26T17:30:37.246Z,12.50
2022-09-26T17:35:43.880Z,12.50
2022-09-26T17:40:48.011Z,12.50
2022-09-26T17:45:51.694Z,12.40
2022-09-26T17:50:55.640Z,12.40
2022-09-26T17:55:57.622Z,12.30
2022-09-26T18:00:59.824Z,12.20
2022-09-26T18:06:03.196Z,12.20
2022-09-26T18:11:10.635Z,12.10
